sensor_id;sensor_type;location;lat;lon;timestamp;temperature;humidity
326;DHT22;150;52.352;14.058;2024-01-15T00:00:46;1.50;50.00
326;DHT22;150;52.352;14.058;2024-01-15T00:03:13;1.60;50.10
326;DHT22;150;52.352;14.058;2024-01-15T00:05:42;1.50;49.70
326;DHT22;150;52.352;14.058;2024-01-15T00:08:08;1.50;49.70
326;DHT22;150;52.352;14.058;2024-01-15T00:10:35;1.50;49.80
326;DHT22;150;52.352;14.058;2024-01-15T00:13:02;1.50;50.10
326;DHT22;150;52.352;14.058;2024-01-15T00:15:28;1.40;50.20
326;DHT22;150;52.352;14.058;2024-01-15T00:17:55;1.30;50.20
326;DHT22;150;52.352;14.058;2024-01-15T00:20:22;1.30;50.60
326;DHT22;150;52.352;14.058;2024-01-15T00:22:50;1.30;51.10
326;DHT22;150;52.352;14.058;2024-01-15T00:25:16;1.30;51.00
326;DHT22;150;52.352;14.058;2024-01-15T00:27:43;1.40;50.70
326;DHT22;150;52.352;14.058;2024-01-15T00:30:10;1.30;50.50
326;DHT22;150;52.352;14.058;2024-01-15T00:32:37;1.40;51.00
326;DHT22;150;52.352;14.058;2024-01-15T00:35:04;1.40;50.30
326;DHT22;150;52.352;14.058;2024-01-15T00:37:31;1.40;49.80
326;DHT22;150;52.352;14.058;2024-01-15T00:39:59;1.30;49.90
326;DHT22;150;52.352;14.058;2024-01-15T00:42:26;1.30;50.40
326;DHT22;150;52.352;14.058;2024-01-15T00:44:52;1.40;50.70
326;DHT22;150;52.352;14.058;2024-01-15T00:47:19;1.40;50.60
326;DHT22;150;52.352;14.058;2024-01-15T00:49:46;1.40;50.30
326;DHT22;150;52.352;14.058;2024-01-15T00:52:12;1.40;50.00
326;DHT22;150;52.352;14.058;2024-01-15T00:54:39;1.30;50.20
326;DHT22;150;52.352;14.058;2024-01-15T00:57:07;1.30;49.90
326;DHT22;150;52.352;14.058;2024-01-15T00:59:33;1.20;50.50
326;DHT22;150;52.352;14.058;2024-01-15T01:02:00;1.10;51.20
326;DHT22;150;52.352;14.058;2024-01-15T01:04:27;1.20;51.60
326;DHT22;150;52.352;14.058;2024-01-15T01:06:54;1.20;51.60
326;DHT22;150;52.352;14.058;2024-01-15T01:09:20;1.10;51.20
326;DHT22;150;52.352;14.058;2024-01-15T01:11:47;1.10;51.40
326;DHT22;150;52.352;14.058;2024-01-15T01:14:15;1.20;51.30
326;DHT22;150;52.352;14.058;2024-01-15T01:16:41;1.10;51.10
326;DHT22;150;52.352;14.058;2024-01-15T01:19:08;1.10;51.40
326;DHT22;150;52.352;14.058;2024-01-15T01:21:35;1.10;51.40
326;DHT22;150;52.352;14.058;2024-01-15T01:24:01;1.10;51.20
326;DHT22;150;52.352;14.058;2024-01-15T01:26:28;1.10;51.00
326;DHT22;150;52.352;14.058;2024-01-15T01:28:54;1.00;51.20
326;DHT22;150;52.352;14.058;2024-01-15T01:31:23;1.00;51.30
326;DHT22;150;52.352;14.058;2024-01-15T01:33:49;1.00;51.40
326;DHT22;150;52.352;14.058;2024-01-15T01:36:16;1.00;51.30
326;DHT22;150;52.352;14.058;2024-01-15T01:38:42;1.10;51.20
326;DHT22;150;52.352;14.058;2024-01-15T01:41:09;1.10;51.00
326;DHT22;150;52.352;14.058;2024-01-15T01:43:36;1.10;51.00
326;DHT22;150;52.352;14.058;2024-01-15T01:46:03;1.10;51.10
326;DHT22;150;52.352;14.058;2024-01-15T01:48:31;1.10;51.00
326;DHT22;150;52.352;14.058;2024-01-15T01:51:00;1.10;51.10
326;DHT22;150;52.352;14.058;2024-01-15T01:53:29;1.10;51.00
326;DHT22;150;52.352;14.058;2024-01-15T01:55:58;1.00;51.00
326;DHT22;150;52.352;14.058;2024-01-15T01:58:25;1.00;51.20
326;DHT22;150;52.352;14.058;2024-01-15T02:00:53;1.00;51.10
326;DHT22;150;52.352;14.058;2024-01-15T02:03:20;1.00;51.20
326;DHT22;150;52.352;14.058;2024-01-15T02:05:49;1.10;51.20
326;DHT22;150;52.352;14.058;2024-01-15T02:08:15;1.10;51.20
326;DHT22;150;52.352;14.058;2024-01-15T02:10:42;1.10;50.90
326;DHT22;150;52.352;14.058;2024-01-15T02:13:09;1.00;50.90
326;DHT22;150;52.352;14.058;2024-01-15T02:15:35;1.00;51.30
326;DHT22;150;52.352;14.058;2024-01-15T02:18:04;0.90;51.60
326;DHT22;150;52.352;14.058;2024-01-15T02:20:32;0.90;51.90
326;DHT22;150;52.352;14.058;2024-01-15T02:23:08;0.90;52.20
326;DHT22;150;52.352;14.058;2024-01-15T02:25:35;1.00;52.10
326;DHT22;150;52.352;14.058;2024-01-15T02:28:03;1.00;52.00
326;DHT22;150;52.352;14.058;2024-01-15T02:30:30;1.10;51.80
326;DHT22;150;52.352;14.058;2024-01-15T02:32:57;1.10;51.40
326;DHT22;150;52.352;14.058;2024-01-15T02:35:24;1.10;51.10
326;DHT22;150;52.352;14.058;2024-01-15T02:37:50;1.10;51.30
326;DHT22;150;52.352;14.058;2024-01-15T02:40:18;1.00;51.20
326;DHT22;150;52.352;14.058;2024-01-15T02:42:45;1.10;51.40
326;DHT22;150;52.352;14.058;2024-01-15T02:45:11;1.10;51.20
326;DHT22;150;52.352;14.058;2024-01-15T02:47:38;1.10;50.60
326;DHT22;150;52.352;14.058;2024-01-15T02:50:05;1.10;50.60
326;DHT22;150;52.352;14.058;2024-01-15T02:52:32;1.10;51.00
326;DHT22;150;52.352;14.058;2024-01-15T02:54:59;1.10;50.70
326;DHT22;150;52.352;14.058;2024-01-15T02:57:26;1.10;50.10
326;DHT22;150;52.352;14.058;2024-01-15T02:59:53;1.00;49.80
326;DHT22;150;52.352;14.058;2024-01-15T03:02:20;1.00;50.10
326;DHT22;150;52.352;14.058;2024-01-15T03:04:46;1.00;50.50
326;DHT22;150;52.352;14.058;2024-01-15T03:07:13;1.00;50.70
326;DHT22;150;52.352;14.058;2024-01-15T03:09:39;1.10;50.50
326;DHT22;150;52.352;14.058;2024-01-15T03:12:07;1.10;50.00
326;DHT22;150;52.352;14.058;2024-01-15T03:14:35;1.10;49.50
326;DHT22;150;52.352;14.058;2024-01-15T03:17:01;1.10;49.10
326;DHT22;150;52.352;14.058;2024-01-15T03:19:28;1.10;49.10
326;DHT22;150;52.352;14.058;2024-01-15T03:21:55;1.10;48.60
326;DHT22;150;52.352;14.058;2024-01-15T03:24:22;1.10;48.60
326;DHT22;150;52.352;14.058;2024-01-15T03:26:48;1.00;48.80
326;DHT22;150;52.352;14.058;2024-01-15T03:29:14;1.00;48.90
326;DHT22;150;52.352;14.058;2024-01-15T03:31:42;1.00;48.50
326;DHT22;150;52.352;14.058;2024-01-15T03:34:08;1.00;48.50
326;DHT22;150;52.352;14.058;2024-01-15T03:36:35;1.00;48.50
326;DHT22;150;52.352;14.058;2024-01-15T03:39:02;0.90;48.40
326;DHT22;150;52.352;14.058;2024-01-15T03:41:28;0.90;48.80
326;DHT22;150;52.352;14.058;2024-01-15T03:43:55;1.00;49.00
326;DHT22;150;52.352;14.058;2024-01-15T03:46:21;0.90;48.40
326;DHT22;150;52.352;14.058;2024-01-15T03:48:49;0.90;48.90
326;DHT22;150;52.352;14.058;2024-01-15T03:51:17;1.00;48.70
326;DHT22;150;52.352;14.058;2024-01-15T03:53:44;1.00;48.50
326;DHT22;150;52.352;14.058;2024-01-15T03:56:10;1.00;48.50
326;DHT22;150;52.352;14.058;2024-01-15T03:58:37;1.00;48.50
326;DHT22;150;52.352;14.058;2024-01-15T04:01:06;1.10;48.60
326;DHT22;150;52.352;14.058;2024-01-15T04:03:33;1.00;48.50
326;DHT22;150;52.352;14.058;2024-01-15T04:06:01;0.90;48.10
326;DHT22;150;52.352;14.058;2024-01-15T04:08:28;0.80;48.40
326;DHT22;150;52.352;14.058;2024-01-15T04:10:54;0.90;48.40
326;DHT22;150;52.352;14.058;2024-01-15T04:13:21;1.00;48.50
326;DHT22;150;52.352;14.058;2024-01-15T04:15:48;1.10;48.30
326;DHT22;150;52.352;14.058;2024-01-15T04:18:16;1.10;48.40
326;DHT22;150;52.352;14.058;2024-01-15T04:20:43;1.10;48.10
326;DHT22;150;52.352;14.058;2024-01-15T04:23:10;1.10;46.70
326;DHT22;150;52.352;14.058;2024-01-15T04:25:37;1.10;47.20
326;DHT22;150;52.352;14.058;2024-01-15T04:28:06;1.10;47.60
326;DHT22;150;52.352;14.058;2024-01-15T04:30:33;1.10;47.50
326;DHT22;150;52.352;14.058;2024-01-15T04:32:59;1.10;47.50
326;DHT22;150;52.352;14.058;2024-01-15T04:35:26;1.00;47.30
326;DHT22;150;52.352;14.058;2024-01-15T04:37:52;1.00;47.80
326;DHT22;150;52.352;14.058;2024-01-15T04:40:20;1.00;47.60
326;DHT22;150;52.352;14.058;2024-01-15T04:42:47;1.00;47.20
326;DHT22;150;52.352;14.058;2024-01-15T04:45:13;0.90;47.20
326;DHT22;150;52.352;14.058;2024-01-15T04:47:40;1.00;47.60
326;DHT22;150;52.352;14.058;2024-01-15T04:50:08;0.90;47.40
326;DHT22;150;52.352;14.058;2024-01-15T04:52:34;0.80;47.50
326;DHT22;150;52.352;14.058;2024-01-15T04:55:01;0.80;47.80
326;DHT22;150;52.352;14.058;2024-01-15T04:57:29;0.80;48.20
326;DHT22;150;52.352;14.058;2024-01-15T04:59:55;0.80;48.40
326;DHT22;150;52.352;14.058;2024-01-15T05:02:22;0.80;47.90
326;DHT22;150;52.352;14.058;2024-01-15T05:04:48;0.80;47.80
326;DHT22;150;52.352;14.058;2024-01-15T05:07:15;0.80;47.70
326;DHT22;150;52.352;14.058;2024-01-15T05:09:41;0.90;47.70
326;DHT22;150;52.352;14.058;2024-01-15T05:12:08;1.00;47.20
326;DHT22;150;52.352;14.058;2024-01-15T05:14:36;1.00;46.70
326;DHT22;150;52.352;14.058;2024-01-15T05:17:03;1.10;46.10
326;DHT22;150;52.352;14.058;2024-01-15T05:19:29;1.20;46.10
326;DHT22;150;52.352;14.058;2024-01-15T05:21:56;1.10;44.70
326;DHT22;150;52.352;14.058;2024-01-15T05:24:22;1.10;45.10
326;DHT22;150;52.352;14.058;2024-01-15T05:26:49;1.20;44.80
326;DHT22;150;52.352;14.058;2024-01-15T05:29:15;1.30;44.50
326;DHT22;150;52.352;14.058;2024-01-15T05:31:43;1.30;44.10
326;DHT22;150;52.352;14.058;2024-01-15T05:34:10;1.20;43.60
326;DHT22;150;52.352;14.058;2024-01-15T05:36:36;1.20;44.10
326;DHT22;150;52.352;14.058;2024-01-15T05:39:03;1.30;44.50
326;DHT22;150;52.352;14.058;2024-01-15T05:41:30;1.30;43.70
326;DHT22;150;52.352;14.058;2024-01-15T05:43:56;1.30;43.50
326;DHT22;150;52.352;14.058;2024-01-15T05:46:23;1.20;43.20
326;DHT22;150;52.352;14.058;2024-01-15T05:48:50;1.30;43.30
326;DHT22;150;52.352;14.058;2024-01-15T05:51:17;1.30;43.50
326;DHT22;150;52.352;14.058;2024-01-15T05:53:43;1.20;43.60
326;DHT22;150;52.352;14.058;2024-01-15T05:56:10;1.20;43.60
326;DHT22;150;52.352;14.058;2024-01-15T05:58:37;1.30;43.50
326;DHT22;150;52.352;14.058;2024-01-15T06:01:04;1.30;43.20
326;DHT22;150;52.352;14.058;2024-01-15T06:03:30;1.30;43.40
326;DHT22;150;52.352;14.058;2024-01-15T06:05:58;1.20;43.50
326;DHT22;150;52.352;14.058;2024-01-15T06:08:24;1.20;43.60
326;DHT22;150;52.352;14.058;2024-01-15T06:10:53;1.20;43.60
326;DHT22;150;52.352;14.058;2024-01-15T06:13:19;1.20;43.60
326;DHT22;150;52.352;14.058;2024-01-15T06:15:46;1.20;43.60
326;DHT22;150;52.352;14.058;2024-01-15T06:18:12;1.20;43.60
326;DHT22;150;52.352;14.058;2024-01-15T06:20:39;1.20;43.70
326;DHT22;150;52.352;14.058;2024-01-15T06:23:07;1.20;43.60
326;DHT22;150;52.352;14.058;2024-01-15T06:25:33;1.20;43.00
326;DHT22;150;52.352;14.058;2024-01-15T06:28:00;1.20;43.10
326;DHT22;150;52.352;14.058;2024-01-15T06:30:27;1.40;43.00
326;DHT22;150;52.352;14.058;2024-01-15T06:32:55;1.30;42.60
326;DHT22;150;52.352;14.058;2024-01-15T06:35:21;1.30;42.80
326;DHT22;150;52.352;14.058;2024-01-15T06:37:48;1.30;43.60
326;DHT22;150;52.352;14.058;2024-01-15T06:40:16;1.30;44.10
326;DHT22;150;52.352;14.058;2024-01-15T06:42:42;1.30;44.40
326;DHT22;150;52.352;14.058;2024-01-15T06:45:09;1.30;44.70
326;DHT22;150;52.352;14.058;2024-01-15T06:47:36;1.30;45.00
326;DHT22;150;52.352;14.058;2024-01-15T06:50:02;1.30;45.10
326;DHT22;150;52.352;14.058;2024-01-15T06:52:30;1.20;44.90
326;DHT22;150;52.352;14.058;2024-01-15T06:54:56;1.30;44.60
326;DHT22;150;52.352;14.058;2024-01-15T06:57:24;1.20;44.50
326;DHT22;150;52.352;14.058;2024-01-15T06:59:51;1.30;44.60
326;DHT22;150;52.352;14.058;2024-01-15T07:02:17;1.30;44.40
326;DHT22;150;52.352;14.058;2024-01-15T07:04:44;1.30;44.50
326;DHT22;150;52.352;14.058;2024-01-15T07:07:10;1.30;44.50
326;DHT22;150;52.352;14.058;2024-01-15T07:09:37;1.30;44.70
326;DHT22;150;52.352;14.058;2024-01-15T07:12:04;1.30;44.60
326;DHT22;150;52.352;14.058;2024-01-15T07:14:32;1.20;44.60
326;DHT22;150;52.352;14.058;2024-01-15T07:16:58;1.20;45.00
326;DHT22;150;52.352;14.058;2024-01-15T07:19:25;1.10;45.20
326;DHT22;150;52.352;14.058;2024-01-15T07:21:51;1.10;44.80
326;DHT22;150;52.352;14.058;2024-01-15T07:24:18;1.10;44.90
326;DHT22;150;52.352;14.058;2024-01-15T07:26:45;1.20;44.90
326;DHT22;150;52.352;14.058;2024-01-15T07:29:11;1.20;44.40
326;DHT22;150;52.352;14.058;2024-01-15T07:31:39;1.10;44.00
326;DHT22;150;52.352;14.058;2024-01-15T07:34:05;1.20;44.00
326;DHT22;150;52.352;14.058;2024-01-15T07:36:32;1.30;44.30
326;DHT22;150;52.352;14.058;2024-01-15T07:38:59;1.30;43.70
326;DHT22;150;52.352;14.058;2024-01-15T07:41:25;1.30;43.70
326;DHT22;150;52.352;14.058;2024-01-15T07:43:52;1.30;43.20
326;DHT22;150;52.352;14.058;2024-01-15T07:46:18;1.30;43.40
326;DHT22;150;52.352;14.058;2024-01-15T07:48:46;1.30;43.70
326;DHT22;150;52.352;14.058;2024-01-15T07:51:12;1.30;43.70
326;DHT22;150;52.352;14.058;2024-01-15T07:53:39;1.30;45.10
326;DHT22;150;52.352;14.058;2024-01-15T07:56:06;1.40;44.70
326;DHT22;150;52.352;14.058;2024-01-15T07:58:32;1.40;43.70
326;DHT22;150;52.352;14.058;2024-01-15T08:00:59;1.50;43.80
326;DHT22;150;52.352;14.058;2024-01-15T08:03:26;1.50;42.90
326;DHT22;150;52.352;14.058;2024-01-15T08:05:54;1.40;42.30
326;DHT22;150;52.352;14.058;2024-01-15T08:08:22;1.50;42.70
326;DHT22;150;52.352;14.058;2024-01-15T08:10:49;1.50;42.90
326;DHT22;150;52.352;14.058;2024-01-15T08:13:16;1.40;42.70
326;DHT22;150;52.352;14.058;2024-01-15T08:15:42;1.40;42.20
326;DHT22;150;52.352;14.058;2024-01-15T08:18:09;1.50;42.00
326;DHT22;150;52.352;14.058;2024-01-15T08:20:35;1.50;42.10
326;DHT22;150;52.352;14.058;2024-01-15T08:23:04;1.60;41.60
326;DHT22;150;52.352;14.058;2024-01-15T08:25:30;1.60;41.20
326;DHT22;150;52.352;14.058;2024-01-15T08:27:57;1.60;40.60
326;DHT22;150;52.352;14.058;2024-01-15T08:30:23;1.60;40.30
326;DHT22;150;52.352;14.058;2024-01-15T08:32:53;1.70;40.40
326;DHT22;150;52.352;14.058;2024-01-15T08:35:19;1.70;40.20
326;DHT22;150;52.352;14.058;2024-01-15T08:37:48;1.70;40.20
326;DHT22;150;52.352;14.058;2024-01-15T08:40:16;1.70;40.10
326;DHT22;150;52.352;14.058;2024-01-15T08:42:42;1.70;40.00
326;DHT22;150;52.352;14.058;2024-01-15T08:45:09;1.60;39.90
326;DHT22;150;52.352;14.058;2024-01-15T08:47:36;1.70;40.00
326;DHT22;150;52.352;14.058;2024-01-15T08:50:03;1.80;39.50
326;DHT22;150;52.352;14.058;2024-01-15T08:52:30;1.90;39.20
326;DHT22;150;52.352;14.058;2024-01-15T08:54:57;2.00;39.00
326;DHT22;150;52.352;14.058;2024-01-15T08:57:25;2.00;39.00
326;DHT22;150;52.352;14.058;2024-01-15T08:59:51;2.00;39.00
326;DHT22;150;52.352;14.058;2024-01-15T09:02:18;2.00;38.20
326;DHT22;150;52.352;14.058;2024-01-15T09:04:44;2.00;38.10
326;DHT22;150;52.352;14.058;2024-01-15T09:07:11;2.00;38.60
326;DHT22;150;52.352;14.058;2024-01-15T09:09:37;1.90;39.00
326;DHT22;150;52.352;14.058;2024-01-15T09:12:05;2.00;39.00
326;DHT22;150;52.352;14.058;2024-01-15T09:14:33;2.00;39.10
326;DHT22;150;52.352;14.058;2024-01-15T09:16:59;2.00;39.00
326;DHT22;150;52.352;14.058;2024-01-15T09:19:26;1.90;39.20
326;DHT22;150;52.352;14.058;2024-01-15T09:21:52;1.90;39.00
326;DHT22;150;52.352;14.058;2024-01-15T09:24:19;1.90;39.00
326;DHT22;150;52.352;14.058;2024-01-15T09:26:45;1.90;39.10
326;DHT22;150;52.352;14.058;2024-01-15T09:29:12;1.90;39.00
326;DHT22;150;52.352;14.058;2024-01-15T09:31:42;2.00;39.00
326;DHT22;150;52.352;14.058;2024-01-15T09:34:09;2.10;38.30
326;DHT22;150;52.352;14.058;2024-01-15T09:36:39;2.20;38.60
326;DHT22;150;52.352;14.058;2024-01-15T09:39:06;2.20;38.20
326;DHT22;150;52.352;14.058;2024-01-15T09:41:34;2.20;38.30
326;DHT22;150;52.352;14.058;2024-01-15T09:44:01;2.20;38.10
326;DHT22;150;52.352;14.058;2024-01-15T09:46:28;2.20;37.90
326;DHT22;150;52.352;14.058;2024-01-15T09:48:55;2.20;38.30
326;DHT22;150;52.352;14.058;2024-01-15T09:51:23;2.20;38.90
326;DHT22;150;52.352;14.058;2024-01-15T09:53:50;2.00;39.00
326;DHT22;150;52.352;14.058;2024-01-15T09:56:17;1.90;39.60
326;DHT22;150;52.352;14.058;2024-01-15T09:58:44;1.90;40.70
326;DHT22;150;52.352;14.058;2024-01-15T10:01:11;1.90;41.00
326;DHT22;150;52.352;14.058;2024-01-15T10:03:40;1.90;41.10
326;DHT22;150;52.352;14.058;2024-01-15T10:06:09;1.90;41.50
326;DHT22;150;52.352;14.058;2024-01-15T10:08:37;1.90;41.50
326;DHT22;150;52.352;14.058;2024-01-15T10:11:04;1.90;41.80
326;DHT22;150;52.352;14.058;2024-01-15T10:13:31;1.90;41.70
326;DHT22;150;52.352;14.058;2024-01-15T10:16:00;2.00;42.10
326;DHT22;150;52.352;14.058;2024-01-15T10:18:28;1.90;41.70
326;DHT22;150;52.352;14.058;2024-01-15T10:20:55;2.00;41.70
326;DHT22;150;52.352;14.058;2024-01-15T10:23:24;2.00;41.70
326;DHT22;150;52.352;14.058;2024-01-15T10:25:51;2.10;41.60
326;DHT22;150;52.352;14.058;2024-01-15T10:28:19;1.90;40.70
326;DHT22;150;52.352;14.058;2024-01-15T10:30:46;1.90;41.50
326;DHT22;150;52.352;14.058;2024-01-15T10:33:12;1.80;41.10
326;DHT22;150;52.352;14.058;2024-01-15T10:35:41;1.90;41.80
326;DHT22;150;52.352;14.058;2024-01-15T10:38:07;2.00;42.10
326;DHT22;150;52.352;14.058;2024-01-15T10:40:35;2.10;41.60
326;DHT22;150;52.352;14.058;2024-01-15T10:43:02;2.10;41.10
326;DHT22;150;52.352;14.058;2024-01-15T10:45:29;2.10;41.10
326;DHT22;150;52.352;14.058;2024-01-15T10:47:56;2.10;41.30
326;DHT22;150;52.352;14.058;2024-01-15T10:50:24;2.20;41.60
326;DHT22;150;52.352;14.058;2024-01-15T10:52:51;2.20;40.90
326;DHT22;150;52.352;14.058;2024-01-15T10:55:19;2.10;41.30
326;DHT22;150;52.352;14.058;2024-01-15T10:57:48;2.20;41.80
326;DHT22;150;52.352;14.058;2024-01-15T11:00:15;2.20;41.90
326;DHT22;150;52.352;14.058;2024-01-15T11:02:42;2.30;42.00
326;DHT22;150;52.352;14.058;2024-01-15T11:05:10;2.40;41.20
326;DHT22;150;52.352;14.058;2024-01-15T11:07:39;2.40;41.20
326;DHT22;150;52.352;14.058;2024-01-15T11:10:07;2.50;41.40
326;DHT22;150;52.352;14.058;2024-01-15T11:12:35;2.70;41.20
326;DHT22;150;52.352;14.058;2024-01-15T11:15:04;2.70;39.60
326;DHT22;150;52.352;14.058;2024-01-15T11:17:58;2.60;39.20
326;DHT22;150;52.352;14.058;2024-01-15T11:20:25;2.50;39.50
326;DHT22;150;52.352;14.058;2024-01-15T11:22:52;2.50;39.50
326;DHT22;150;52.352;14.058;2024-01-15T11:25:19;2.50;39.50
326;DHT22;150;52.352;14.058;2024-01-15T11:27:46;2.50;38.90
326;DHT22;150;52.352;14.058;2024-01-15T11:30:16;2.60;38.80
326;DHT22;150;52.352;14.058;2024-01-15T11:32:45;2.70;38.90
326;DHT22;150;52.352;14.058;2024-01-15T11:35:12;2.70;38.20
326;DHT22;150;52.352;14.058;2024-01-15T11:37:58;2.70;37.90
326;DHT22;150;52.352;14.058;2024-01-15T11:40:37;2.80;38.50
326;DHT22;150;52.352;14.058;2024-01-15T11:43:05;2.80;37.10
326;DHT22;150;52.352;14.058;2024-01-15T11:45:33;2.80;37.90
326;DHT22;150;52.352;14.058;2024-01-15T11:48:09;2.90;37.40
326;DHT22;150;52.352;14.058;2024-01-15T11:50:40;3.00;37.40
326;DHT22;150;52.352;14.058;2024-01-15T11:53:21;3.10;37.10
326;DHT22;150;52.352;14.058;2024-01-15T11:55:52;3.00;36.40
326;DHT22;150;52.352;14.058;2024-01-15T11:58:23;2.90;36.00
326;DHT22;150;52.352;14.058;2024-01-15T12:00:52;2.80;36.80
326;DHT22;150;52.352;14.058;2024-01-15T12:03:21;2.80;37.10
326;DHT22;150;52.352;14.058;2024-01-15T12:05:47;2.70;37.40
326;DHT22;150;52.352;14.058;2024-01-15T12:08:14;2.70;38.00
326;DHT22;150;52.352;14.058;2024-01-15T12:10:41;2.50;37.60
326;DHT22;150;52.352;14.058;2024-01-15T12:13:10;2.50;38.70
326;DHT22;150;52.352;14.058;2024-01-15T12:15:37;2.50;39.50
326;DHT22;150;52.352;14.058;2024-01-15T12:18:08;2.50;39.50
326;DHT22;150;52.352;14.058;2024-01-15T12:20:35;2.50;39.50
326;DHT22;150;52.352;14.058;2024-01-15T12:23:02;2.60;39.60
326;DHT22;150;52.352;14.058;2024-01-15T12:25:30;2.70;39.60
326;DHT22;150;52.352;14.058;2024-01-15T12:27:57;2.60;39.60
326;DHT22;150;52.352;14.058;2024-01-15T12:30:25;2.60;39.60
326;DHT22;150;52.352;14.058;2024-01-15T12:32:52;2.60;39.50
326;DHT22;150;52.352;14.058;2024-01-15T12:35:20;2.40;40.40
326;DHT22;150;52.352;14.058;2024-01-15T12:37:47;2.20;41.30
326;DHT22;150;52.352;14.058;2024-01-15T12:40:18;2.30;41.70
326;DHT22;150;52.352;14.058;2024-01-15T12:42:45;2.00;42.20
326;DHT22;150;52.352;14.058;2024-01-15T12:45:12;1.90;43.00
326;DHT22;150;52.352;14.058;2024-01-15T12:47:39;1.90;43.70
326;DHT22;150;52.352;14.058;2024-01-15T12:50:06;2.00;44.20
326;DHT22;150;52.352;14.058;2024-01-15T12:52:35;2.00;43.70
326;DHT22;150;52.352;14.058;2024-01-15T12:55:04;2.00;43.40
326;DHT22;150;52.352;14.058;2024-01-15T12:57:34;2.00;43.40
326;DHT22;150;52.352;14.058;2024-01-15T13:00:01;2.00;43.90
326;DHT22;150;52.352;14.058;2024-01-15T13:02:28;2.00;44.20
326;DHT22;150;52.352;14.058;2024-01-15T13:04:54;2.10;44.10
326;DHT22;150;52.352;14.058;2024-01-15T13:07:21;2.00;43.40
326;DHT22;150;52.352;14.058;2024-01-15T13:09:48;2.10;43.10
326;DHT22;150;52.352;14.058;2024-01-15T13:12:19;2.20;43.00
326;DHT22;150;52.352;14.058;2024-01-15T13:14:45;2.20;42.00
326;DHT22;150;52.352;14.058;2024-01-15T13:17:12;2.10;41.70
326;DHT22;150;52.352;14.058;2024-01-15T13:19:40;2.10;41.80
326;DHT22;150;52.352;14.058;2024-01-15T13:22:06;2.00;41.60
326;DHT22;150;52.352;14.058;2024-01-15T13:24:34;2.10;41.80
326;DHT22;150;52.352;14.058;2024-01-15T13:27:03;2.10;41.10
326;DHT22;150;52.352;14.058;2024-01-15T13:29:30;2.20;41.50
326;DHT22;150;52.352;14.058;2024-01-15T13:31:56;2.10;40.70
326;DHT22;150;52.352;14.058;2024-01-15T13:34:23;2.10;41.50
326;DHT22;150;52.352;14.058;2024-01-15T13:36:50;2.20;41.20
326;DHT22;150;52.352;14.058;2024-01-15T13:39:16;2.10;40.30
326;DHT22;150;52.352;14.058;2024-01-15T13:41:45;2.10;40.80
326;DHT22;150;52.352;14.058;2024-01-15T13:44:13;2.10;40.80
326;DHT22;150;52.352;14.058;2024-01-15T13:46:40;2.10;40.10
326;DHT22;150;52.352;14.058;2024-01-15T13:49:07;2.00;40.40
326;DHT22;150;52.352;14.058;2024-01-15T13:51:34;2.10;40.60
326;DHT22;150;52.352;14.058;2024-01-15T13:54:02;2.20;40.60
326;DHT22;150;52.352;14.058;2024-01-15T13:56:29;2.20;40.30
326;DHT22;150;52.352;14.058;2024-01-15T13:58:57;2.10;40.40
326;DHT22;150;52.352;14.058;2024-01-15T14:01:26;2.10;40.50
326;DHT22;150;52.352;14.058;2024-01-15T14:03:53;2.10;40.40
326;DHT22;150;52.352;14.058;2024-01-15T14:06:20;2.00;40.80
326;DHT22;150;52.352;14.058;2024-01-15T14:08:46;2.00;41.00
326;DHT22;150;52.352;14.058;2024-01-15T14:11:13;2.00;40.90
326;DHT22;150;52.352;14.058;2024-01-15T14:13:40;1.90;41.20
326;DHT22;150;52.352;14.058;2024-01-15T14:16:06;2.00;41.80
326;DHT22;150;52.352;14.058;2024-01-15T14:18:34;2.10;40.50
326;DHT22;150;52.352;14.058;2024-01-15T14:21:01;2.00;40.10
326;DHT22;150;52.352;14.058;2024-01-15T14:23:27;2.10;40.50
326;DHT22;150;52.352;14.058;2024-01-15T14:25:54;2.00;40.40
326;DHT22;150;52.352;14.058;2024-01-15T14:28:20;2.00;40.90
326;DHT22;150;52.352;14.058;2024-01-15T14:30:48;2.00;41.10
326;DHT22;150;52.352;14.058;2024-01-15T14:33:15;2.00;41.30
326;DHT22;150;52.352;14.058;2024-01-15T14:35:42;2.00;41.80
326;DHT22;150;52.352;14.058;2024-01-15T14:38:09;1.90;42.20
326;DHT22;150;52.352;14.058;2024-01-15T14:40:36;1.90;42.10
326;DHT22;150;52.352;14.058;2024-01-15T14:43:03;1.80;42.00
326;DHT22;150;52.352;14.058;2024-01-15T14:45:29;1.80;42.50
326;DHT22;150;52.352;14.058;2024-01-15T14:47:56;1.80;42.00
326;DHT22;150;52.352;14.058;2024-01-15T14:50:23;1.80;41.70
326;DHT22;150;52.352;14.058;2024-01-15T14:52:51;1.80;41.60
326;DHT22;150;52.352;14.058;2024-01-15T14:55:19;1.80;41.50
326;DHT22;150;52.352;14.058;2024-01-15T14:57:48;1.80;41.90
326;DHT22;150;52.352;14.058;2024-01-15T15:00:15;1.80;42.30
326;DHT22;150;52.352;14.058;2024-01-15T15:02:42;1.80;42.00
326;DHT22;150;52.352;14.058;2024-01-15T15:05:09;1.80;42.40
326;DHT22;150;52.352;14.058;2024-01-15T15:07:35;1.70;43.00
326;DHT22;150;52.352;14.058;2024-01-15T15:10:04;1.70;43.20
326;DHT22;150;52.352;14.058;2024-01-15T15:12:31;1.60;43.80
326;DHT22;150;52.352;14.058;2024-01-15T15:14:57;1.60;43.90
326;DHT22;150;52.352;14.058;2024-01-15T15:17:24;1.70;44.00
326;DHT22;150;52.352;14.058;2024-01-15T15:19:51;1.60;42.80
326;DHT22;150;52.352;14.058;2024-01-15T15:22:20;1.70;42.80
326;DHT22;150;52.352;14.058;2024-01-15T15:24:47;1.70;42.10
326;DHT22;150;52.352;14.058;2024-01-15T15:27:14;1.70;42.50
326;DHT22;150;52.352;14.058;2024-01-15T15:29:41;1.70;42.20
326;DHT22;150;52.352;14.058;2024-01-15T15:32:08;1.80;42.00
326;DHT22;150;52.352;14.058;2024-01-15T15:34:34;1.80;42.40
326;DHT22;150;52.352;14.058;2024-01-15T15:37:01;1.80;42.00
326;DHT22;150;52.352;14.058;2024-01-15T15:39:27;1.80;41.90
326;DHT22;150;52.352;14.058;2024-01-15T15:41:55;1.80;41.60
326;DHT22;150;52.352;14.058;2024-01-15T15:44:23;1.80;41.10
326;DHT22;150;52.352;14.058;2024-01-15T15:46:52;1.80;41.10
326;DHT22;150;52.352;14.058;2024-01-15T15:49:18;1.80;41.30
326;DHT22;150;52.352;14.058;2024-01-15T15:51:45;1.90;41.30
326;DHT22;150;52.352;14.058;2024-01-15T15:54:11;1.90;41.40
326;DHT22;150;52.352;14.058;2024-01-15T15:56:38;2.00;40.80
326;DHT22;150;52.352;14.058;2024-01-15T15:59:05;2.00;40.00
326;DHT22;150;52.352;14.058;2024-01-15T16:01:35;2.00;39.90
326;DHT22;150;52.352;14.058;2024-01-15T16:04:02;2.00;39.50
326;DHT22;150;52.352;14.058;2024-01-15T16:06:29;2.00;39.00
326;DHT22;150;52.352;14.058;2024-01-15T16:08:56;1.90;39.00
326;DHT22;150;52.352;14.058;2024-01-15T16:11:22;1.90;38.60
326;DHT22;150;52.352;14.058;2024-01-15T16:13:49;1.90;39.00
326;DHT22;150;52.352;14.058;2024-01-15T16:16:16;1.80;38.10
326;DHT22;150;52.352;14.058;2024-01-15T16:18:44;1.80;38.00
326;DHT22;150;52.352;14.058;2024-01-15T16:21:10;1.80;37.70
326;DHT22;150;52.352;14.058;2024-01-15T16:23:38;1.60;38.20
326;DHT22;150;52.352;14.058;2024-01-15T16:26:04;1.60;38.70
326;DHT22;150;52.352;14.058;2024-01-15T16:28:31;1.60;38.30
326;DHT22;150;52.352;14.058;2024-01-15T16:30:57;1.60;38.70
326;DHT22;150;52.352;14.058;2024-01-15T16:33:24;1.50;38.60